Time;durP1;ratioP1;P1;durP2;ratioP2;P2;SDS_P1;SDS_P2;PMS_P1;PMS_P2;Temp;Humidity;BMP_temperature;BMP_pressure;BME280_temperature;BME280_humidity;BME280_pressure;Samples;Min_cycle;Max_cycle;Signal;HPM_P1;HPM_P2
2023/05/03 00:01:19;;;;;;;32.93;7.70;;;7.00;71.70;;;;;;5079292;28;46342;-66
2023/05/03 00:03:45;;;;;;;14.10;7.90;;;7.00;71.80;;;;;;5078066;28;46418;-67
2023/05/03 00:06:15;;;;;;;18.27;8.00;;;7.00;71.70;;;;;;5080972;28;46550;-66
2023/05/03 00:08:41;;;;;;;17.00;7.40;;;7.10;71.70;;;;;;5078591;28;46376;-66
2023/05/03 00:11:08;;;;;;;15.70;8.00;;;7.00;71.50;;;;;;5080020;28;46468;-66
2023/05/03 00:13:33;;;;;;;51.20;8.00;;;7.00;71.60;;;;;;5078227;28;46579;-66
2023/05/03 00:15:59;;;;;;;63.10;8.70;;;7.00;71.80;;;;;;5079810;28;47053;-67
2023/05/03 00:18:25;;;;;;;24.70;7.20;;;6.90;72.10;;;;;;5081530;28;46282;-67
2023/05/03 00:20:52;;;;;;;24.00;7.00;;;6.80;72.30;;;;;;5078533;28;46543;-66
2023/05/03 00:23:17;;;;;;;33.70;7.27;;;6.80;72.40;;;;;;5078353;28;46612;-66
2023/05/03 00:25:43;;;;;;;18.37;6.40;;;6.70;72.50;;;;;;5079853;28;46603;-66
2023/05/03 00:28:09;;;;;;;11.00;8.00;;;6.70;72.60;;;;;;5079880;28;46454;-66
2023/05/03 00:30:34;;;;;;;9.80;7.33;;;6.70;72.40;;;;;;5080595;28;46458;-67
2023/05/03 00:33:00;;;;;;;15.63;7.90;;;6.70;72.30;;;;;;5078006;28;46332;-67
2023/05/03 00:35:28;;;;;;;10.73;8.50;;;6.70;72.20;;;;;;5079487;28;46399;-65
2023/05/03 00:37:54;;;;;;;9.17;6.80;;;6.70;72.30;;;;;;5078430;28;46211;-65
2023/05/03 00:40:19;;;;;;;8.20;6.43;;;6.60;72.30;;;;;;5080188;28;45912;-65
2023/05/03 00:42:45;;;;;;;9.30;5.87;;;6.60;72.40;;;;;;5075053;27;46554;-67
2023/05/03 00:45:11;;;;;;;9.80;5.70;;;6.50;72.60;;;;;;5080590;28;46941;-67
2023/05/03 00:47:37;;;;;;;14.30;5.50;;;6.40;72.70;;;;;;5078202;28;46435;-67
2023/05/03 00:50:03;;;;;;;9.10;5.30;;;6.30;73.00;;;;;;5081085;28;46654;-67
2023/05/03 00:52:29;;;;;;;22.30;6.50;;;6.20;73.00;;;;;;5079632;28;46398;-66
2023/05/03 00:54:56;;;;;;;27.30;6.23;;;6.20;73.10;;;;;;5077922;28;46461;-67
2023/05/03 00:57:24;;;;;;;47.70;7.57;;;6.10;73.00;;;;;;5076159;28;46430;-67
2023/05/03 00:59:52;;;;;;;50.93;8.80;;;6.20;72.90;;;;;;5078969;28;46435;-65
2023/05/03 01:02:17;;;;;;;9.90;6.90;;;6.10;72.40;;;;;;5075919;28;46454;-66
2023/05/03 01:04:43;;;;;;;10.37;6.53;;;6.20;72.50;;;;;;5079424;28;46499;-66
2023/05/03 01:07:09;;;;;;;10.83;8.17;;;6.10;72.30;;;;;;5077143;28;46354;-66
2023/05/03 01:09:49;;;;;;;12.90;7.80;;;6.10;72.30;;;;;;5077760;28;46438;-65
2023/05/03 01:12:46;;;;;;;10.00;7.60;;;6.10;72.30;;;;;;5079146;28;45888;-67
2023/05/03 01:15:24;;;;;;;9.67;7.30;;;6.10;72.40;;;;;;5078549;28;46115;-67
2023/05/03 01:18:06;;;;;;;9.63;7.50;;;6.10;72.40;;;;;;5074375;28;46365;-64
2023/05/03 01:20:34;;;;;;;8.77;7.00;;;6.10;72.30;;;;;;5078951;28;46243;-66
2023/05/03 01:23:11;;;;;;;8.50;6.77;;;6.10;72.40;;;;;;5078374;28;46518;-66
2023/05/03 01:25:36;;;;;;;8.13;6.40;;;6.00;72.40;;;;;;5076728;28;46325;-66
2023/05/03 01:28:02;;;;;;;81.60;7.80;;;6.00;72.40;;;;;;5078839;28;46439;-67
2023/05/03 01:30:30;;;;;;;101.37;8.17;;;6.00;72.50;;;;;;5077365;28;46481;-66
2023/05/03 01:33:10;;;;;;;120.77;8.00;;;5.90;72.50;;;;;;5077972;28;45850;-66
2023/05/03 01:35:41;;;;;;;43.37;7.30;;;5.80;72.80;;;;;;5077207;28;46176;-67
2023/05/03 01:38:08;;;;;;;78.33;7.07;;;5.80;73.00;;;;;;5079079;28;45734;-67
2023/05/03 01:40:58;;;;;;;37.90;6.10;;;5.80;73.20;;;;;;5079668;28;46325;-65
2023/05/03 01:43:24;;;;;;;54.27;6.53;;;5.80;73.10;;;;;;5078675;28;46259;-66
2023/05/03 01:45:50;;;;;;;23.47;6.30;;;5.70;72.90;;;;;;5076843;28;47262;-66
2023/05/03 01:48:17;;;;;;;27.43;6.50;;;5.70;72.90;;;;;;5076014;28;46662;-66
2023/05/03 01:50:43;;;;;;;14.30;6.10;;;5.70;72.80;;;;;;5073932;28;46662;-66
2023/05/03 01:53:09;;;;;;;7.60;5.90;;;5.70;72.80;;;;;;5079085;28;46511;-66
2023/05/03 01:55:34;;;;;;;8.13;5.93;;;5.80;72.70;;;;;;5081400;28;46314;-66
2023/05/03 01:58:00;;;;;;;8.20;5.40;;;5.80;72.50;;;;;;5082413;28;46394;-67
2023/05/03 02:00:26;;;;;;;7.90;6.10;;;5.80;72.30;;;;;;5081436;28;46633;-67
2023/05/03 02:02:51;;;;;;;9.40;6.50;;;5.80;72.30;;;;;;5081101;28;46540;-67
2023/05/03 02:05:17;;;;;;;8.33;6.23;;;5.80;72.30;;;;;;5079173;27;49049;-66
2023/05/03 02:07:42;;;;;;;8.73;6.30;;;5.80;72.30;;;;;;5079514;28;46428;-67
2023/05/03 02:10:13;;;;;;;10.47;5.90;;;5.80;72.30;;;;;;5080100;28;46306;-65
2023/05/03 02:12:44;;;;;;;13.10;6.77;;;5.80;72.30;;;;;;5079479;28;46621;-65
2023/05/03 02:15:11;;;;;;;11.43;6.67;;;5.80;72.20;;;;;;5082145;28;46452;-66
2023/05/03 02:17:37;;;;;;;17.23;6.63;;;5.80;72.20;;;;;;5080573;28;46461;-66
2023/05/03 02:20:10;;;;;;;9.20;6.40;;;5.80;72.20;;;;;;5080596;28;46417;-66
2023/05/03 02:22:36;;;;;;;10.50;7.00;;;5.90;72.20;;;;;;5078660;28;46523;-65
2023/05/03 02:25:02;;;;;;;9.40;7.40;;;5.90;71.90;;;;;;5080896;28;46272;-67
2023/05/03 02:27:27;;;;;;;8.67;6.30;;;6.00;71.90;;;;;;5083288;28;46403;-67
2023/05/03 02:29:53;;;;;;;8.80;6.13;;;6.00;71.70;;;;;;5080506;28;46439;-66
2023/05/03 02:32:20;;;;;;;8.73;6.40;;;6.10;71.60;;;;;;5077756;28;46749;-67
2023/05/03 02:34:47;;;;;;;10.13;6.30;;;6.20;71.30;;;;;;5081220;28;46322;-67
2023/05/03 02:37:13;;;;;;;10.43;5.00;;;6.30;71.10;;;;;;5077832;27;46322;-66
2023/05/03 02:39:39;;;;;;;6.20;4.33;;;6.30;70.90;;;;;;5080041;28;46457;-66
2023/05/03 02:42:05;;;;;;;9.87;5.50;;;6.40;70.90;;;;;;5080909;28;46533;-67
2023/05/03 02:44:31;;;;;;;13.00;6.10;;;6.40;70.90;;;;;;5081131;28;46840;-66
2023/05/03 02:46:56;;;;;;;20.87;5.80;;;6.40;70.80;;;;;;5081380;28;45790;-66
2023/05/03 02:49:22;;;;;;;16.70;5.40;;;6.40;70.80;;;;;;5082377;28;46458;-66
2023/05/03 02:51:47;;;;;;;16.77;6.60;;;6.40;71.00;;;;;;5078933;28;46590;-68
2023/05/03 02:54:13;;;;;;;10.93;5.87;;;6.40;71.00;;;;;;5081112;28;46426;-67
2023/05/03 02:56:39;;;;;;;63.77;9.23;;;6.40;70.70;;;;;;5084319;28;46345;-67
2023/05/03 02:59:04;;;;;;;43.20;9.40;;;6.60;70.50;;;;;;5082141;28;45869;-66
2023/05/03 03:01:32;;;;;;;165.03;12.80;;;6.60;70.20;;;;;;5079036;28;45846;-66
2023/05/03 03:03:58;;;;;;;182.03;13.30;;;6.70;70.00;;;;;;5081662;28;46376;-67
2023/05/03 03:06:24;;;;;;;196.73;16.13;;;6.70;70.00;;;;;;5080172;27;46317;-66
2023/05/03 03:08:49;;;;;;;286.57;14.90;;;6.80;69.80;;;;;;5082309;28;46634;-66
2023/05/03 03:11:15;;;;;;;189.63;13.40;;;6.80;69.80;;;;;;5084854;28;46616;-67
2023/05/03 03:13:41;;;;;;;49.90;10.33;;;6.80;70.00;;;;;;5079778;28;46896;-66
2023/05/03 03:16:07;;;;;;;20.73;9.53;;;6.90;70.00;;;;;;5079485;28;46316;-67
2023/05/03 03:18:33;;;;;;;19.47;8.00;;;7.00;70.00;;;;;;5080465;28;46658;-67
2023/05/03 03:21:00;;;;;;;10.00;7.20;;;7.10;69.70;;;;;;5077635;28;46991;-66
2023/05/03 03:23:26;;;;;;;10.47;7.03;;;7.20;69.40;;;;;;5081428;28;46445;-67
2023/05/03 03:25:51;;;;;;;11.60;8.27;;;7.30;69.40;;;;;;5079057;28;46375;-65
2023/05/03 03:28:17;;;;;;;10.90;8.10;;;7.30;69.00;;;;;;5081883;28;46096;-66
2023/05/03 03:30:43;;;;;;;14.40;8.20;;;7.40;70.00;;;;;;5079963;28;46337;-66
2023/05/03 03:33:10;;;;;;;12.77;8.43;;;7.50;68.70;;;;;;5080664;28;47075;-66
2023/05/03 03:35:37;;;;;;;12.33;8.27;;;7.60;68.60;;;;;;5081489;27;46425;-65
2023/05/03 03:38:03;;;;;;;12.43;7.50;;;7.70;68.40;;;;;;5079741;28;46375;-66
2023/05/03 03:40:28;;;;;;;9.13;6.70;;;7.80;68.30;;;;;;5081357;28;46423;-66
2023/05/03 03:42:54;;;;;;;9.70;6.20;;;7.80;68.00;;;;;;5077925;28;48119;-66
2023/05/03 03:45:20;;;;;;;15.57;6.37;;;7.90;69.00;;;;;;5079778;28;46289;-65
2023/05/03 03:47:46;;;;;;;8.97;5.33;;;7.90;67.70;;;;;;5080740;28;46376;-65
2023/05/03 03:50:11;;;;;;;12.80;6.93;;;7.90;67.70;;;;;;5081171;28;46500;-67
2023/05/03 03:52:37;;;;;;;6.90;5.20;;;7.90;67.80;;;;;;5078868;28;47480;-65
2023/05/03 03:55:03;;;;;;;6.97;5.60;;;7.90;67.80;;;;;;5077891;28;46400;-66
2023/05/03 03:57:30;;;;;;;7.27;5.37;;;7.90;67.80;;;;;;5082492;28;45955;-66
2023/05/03 03:59:57;;;;;;;11.20;6.20;;;8.00;67.80;;;;;;5080567;28;46380;-66
2023/05/03 04:02:23;;;;;;;9.43;6.30;;;8.00;67.70;;;;;;5078454;28;48300;-67
2023/05/03 04:04:48;;;;;;;9.60;6.23;;;8.00;67.60;;;;;;5077026;28;46307;-66
2023/05/03 04:07:14;;;;;;;6.97;5.67;;;8.10;67.80;;;;;;5079629;28;46443;-67
2023/05/03 04:09:40;;;;;;;8.33;6.23;;;8.10;67.70;;;;;;5079669;28;46660;-66
2023/05/03 04:12:05;;;;;;;41.70;7.90;;;8.10;67.60;;;;;;5078653;28;46662;-66
2023/05/03 04:14:31;;;;;;;16.07;7.93;;;8.20;67.80;;;;;;5078696;28;46215;-67
2023/05/03 04:16:56;;;;;;;16.07;8.10;;;8.20;68.00;;;;;;5079446;27;46581;-66
2023/05/03 04:19:24;;;;;;;18.83;8.20;;;8.20;68.10;;;;;;5079462;28;46567;-67
2023/05/03 04:21:50;;;;;;;24.20;8.20;;;8.20;69.20;;;;;;5080114;28;46479;-66
2023/05/03 04:24:16;;;;;;;14.50;6.30;;;8.30;68.20;;;;;;5079542;28;46627;-65
2023/05/03 04:26:42;;;;;;;14.67;7.00;;;8.30;68.10;;;;;;5079591;28;46357;-67
2023/05/03 04:29:08;;;;;;;33.23;9.00;;;8.40;68.20;;;;;;5078671;28;46437;-67
2023/05/03 04:31:34;;;;;;;60.13;9.03;;;8.40;68.20;;;;;;5080567;28;47107;-67
2023/05/03 04:34:00;;;;;;;50.33;10.10;;;8.40;68.20;;;;;;5077578;28;46376;-67
2023/05/03 04:36:28;;;;;;;91.53;11.30;;;8.40;68.30;;;;;;5079447;28;46503;-67
2023/05/03 04:38:54;;;;;;;119.77;12.40;;;8.40;68.60;;;;;;5079244;28;45837;-66
2023/05/03 04:41:20;;;;;;;185.53;14.50;;;8.30;69.00;;;;;;5079749;28;46485;-65
2023/05/03 04:43:46;;;;;;;143.10;13.53;;;8.30;69.40;;;;;;5079182;28;45801;-67
2023/05/03 04:46:12;;;;;;;115.83;14.73;;;8.40;69.40;;;;;;5081499;28;46472;-66
2023/05/03 04:48:37;;;;;;;130.57;17.83;;;8.30;70.00;;;;;;5078876;28;46635;-64
2023/05/03 04:51:03;;;;;;;203.80;19.37;;;8.20;70.30;;;;;;5079797;28;46382;-67
2023/05/03 04:53:29;;;;;;;237.93;21.73;;;8.20;70.50;;;;;;5079594;28;46403;-66
2023/05/03 04:55:55;;;;;;;206.07;20.00;;;8.00;71.30;;;;;;5076479;28;46393;-67
2023/05/03 04:58:20;;;;;;;262.80;24.97;;;8.00;71.80;;;;;;5080705;28;46288;-66
2023/05/03 05:00:46;;;;;;;321.87;22.00;;;8.10;71.80;;;;;;5078714;28;46978;-66
2023/05/03 05:03:12;;;;;;;164.47;22.10;;;8.10;71.90;;;;;;5078287;28;46448;-67
2023/05/03 05:05:38;;;;;;;219.33;23.33;;;8.20;71.80;;;;;;5080111;28;46387;-66
2023/05/03 05:08:03;;;;;;;223.13;24.50;;;8.30;71.40;;;;;;5077145;28;46416;-67
2023/05/03 05:10:29;;;;;;;193.43;22.47;;;8.30;71.50;;;;;;5078311;28;47064;-66
2023/05/03 05:12:54;;;;;;;142.10;20.93;;;8.30;71.80;;;;;;5078306;28;46550;-66
2023/05/03 05:15:20;;;;;;;122.90;21.40;;;8.30;72.20;;;;;;5075555;28;46352;-66
2023/05/03 05:17:46;;;;;;;131.27;21.90;;;8.30;72.20;;;;;;5079145;28;46436;-65
2023/05/03 05:20:12;;;;;;;169.93;22.80;;;8.40;72.20;;;;;;5079101;28;46479;-65
2023/05/03 05:22:40;;;;;;;186.30;23.27;;;8.50;72.10;;;;;;5082009;28;46447;-67
2023/05/03 05:25:07;;;;;;;142.23;22.80;;;8.50;72.10;;;;;;5079326;28;46293;-67
2023/05/03 05:27:33;;;;;;;129.93;23.47;;;8.60;72.00;;;;;;5077001;27;45820;-66
2023/05/03 05:29:59;;;;;;;153.30;22.93;;;8.70;71.80;;;;;;5081120;28;46480;-66
2023/05/03 05:32:25;;;;;;;107.10;21.30;;;8.70;72.40;;;;;;5083194;28;46454;-66
2023/05/03 05:34:54;;;;;;;106.80;21.00;;;8.70;72.60;;;;;;5082106;28;45822;-67
2023/05/03 05:37:21;;;;;;;138.53;21.73;;;8.70;72.70;;;;;;5084338;28;46420;-67
2023/05/03 05:39:47;;;;;;;172.20;23.07;;;8.70;73.10;;;;;;5082393;28;47111;-67
2023/05/03 05:42:12;;;;;;;130.20;22.00;;;8.70;73.50;;;;;;5083599;28;46387;-67
2023/05/03 05:44:38;;;;;;;116.90;22.27;;;8.80;73.50;;;;;;5082308;28;45875;-66
2023/05/03 05:47:04;;;;;;;79.77;20.00;;;8.80;73.50;;;;;;5086052;28;46567;-67
2023/05/03 05:49:29;;;;;;;143.90;22.57;;;8.90;73.20;;;;;;5086102;28;47468;-65
2023/05/03 05:51:56;;;;;;;139.97;21.37;;;9.00;73.10;;;;;;5080762;28;46460;-67
2023/05/03 05:54:22;;;;;;;107.27;20.33;;;9.00;73.10;;;;;;5084750;28;46552;-66
2023/05/03 05:56:47;;;;;;;139.43;22.00;;;8.90;73.50;;;;;;5082512;28;46637;-66
2023/05/03 05:59:13;;;;;;;88.57;18.50;;;8.90;74.10;;;;;;5082068;28;47398;-66
2023/05/03 06:01:44;;;;;;;87.93;18.17;;;8.80;74.20;;;;;;5083167;28;46383;-66
2023/05/03 06:04:11;;;;;;;93.93;17.80;;;8.80;74.60;;;;;;5077636;28;46476;-66
2023/05/03 06:06:36;;;;;;;72.70;20.20;;;8.70;74.90;;;;;;5081819;28;46124;-66
2023/05/03 06:09:02;;;;;;;54.90;20.60;;;8.70;75.10;;;;;;5078941;28;46490;-66
2023/05/03 06:11:28;;;;;;;73.30;20.13;;;8.80;75.00;;;;;;5081022;28;46379;-67
2023/05/03 06:13:55;;;;;;;78.93;19.47;;;9.00;74.10;;;;;;5078693;28;46441;-66
2023/05/03 06:16:21;;;;;;;49.47;17.50;;;9.20;73.80;;;;;;5077010;28;46638;-68
2023/05/03 06:18:46;;;;;;;53.37;19.47;;;9.20;73.70;;;;;;5080436;28;46531;-68
2023/05/03 06:21:12;;;;;;;54.70;18.83;;;9.20;73.80;;;;;;5080160;28;46460;-68
2023/05/03 06:23:38;;;;;;;36.87;18.83;;;9.30;73.60;;;;;;5079253;28;45958;-68
2023/05/03 06:26:05;;;;;;;57.60;19.37;;;9.10;74.40;;;;;;5079200;28;46159;-68
2023/05/03 06:28:30;;;;;;;70.20;20.40;;;9.10;74.90;;;;;;5077701;28;46542;-67
2023/05/03 06:30:56;;;;;;;83.07;19.90;;;9.10;75.10;;;;;;5077574;27;46780;-68
2023/05/03 06:33:21;;;;;;;43.70;20.90;;;9.10;75.00;;;;;;5079470;28;46400;-68
2023/05/03 06:35:48;;;;;;;51.70;20.50;;;9.30;74.80;;;;;;5083121;28;46585;-69
2023/05/03 06:38:17;;;;;;;50.60;20.27;;;9.40;74.40;;;;;;5098077;27;47843;-68
2023/05/03 06:40:44;;;;;;;43.63;20.47;;;9.40;74.10;;;;;;5077969;28;46355;-66
2023/05/03 06:43:10;;;;;;;71.30;19.77;;;9.60;73.70;;;;;;5077918;28;46106;-65
2023/05/03 06:45:35;;;;;;;41.77;19.30;;;9.70;73.60;;;;;;5082302;28;46133;-67
2023/05/03 06:48:01;;;;;;;44.57;19.30;;;9.80;73.70;;;;;;5082066;28;46556;-67
2023/05/03 06:50:27;;;;;;;34.50;19.57;;;9.80;73.50;;;;;;5082504;28;46450;-69
2023/05/03 06:52:53;;;;;;;40.43;18.80;;;9.80;73.30;;;;;;5079128;28;46400;-68
2023/05/03 06:55:19;;;;;;;38.97;17.83;;;9.90;73.20;;;;;;5088105;28;46453;-68
2023/05/03 06:57:47;;;;;;;41.63;19.30;;;9.90;73.00;;;;;;5081922;28;46382;-69
2023/05/03 07:00:13;;;;;;;37.40;18.97;;;10.00;72.30;;;;;;5080396;28;46404;-68
2023/05/03 07:02:39;;;;;;;28.40;16.90;;;10.00;72.00;;;;;;5077961;27;45752;-68
2023/05/03 07:05:05;;;;;;;25.10;16.70;;;10.00;71.90;;;;;;5077588;28;46568;-67
2023/05/03 07:07:33;;;;;;;47.33;17.03;;;10.10;71.80;;;;;;5078346;28;47014;-66
2023/05/03 07:09:59;;;;;;;31.87;17.47;;;10.10;72.10;;;;;;5078025;28;46373;-68
2023/05/03 07:12:27;;;;;;;37.20;18.30;;;10.10;72.00;;;;;;5076666;28;46419;-68
2023/05/03 07:14:56;;;;;;;27.80;17.73;;;10.20;72.10;;;;;;5077159;28;46483;-67
2023/05/03 07:17:22;;;;;;;32.63;15.87;;;10.40;71.60;;;;;;5075424;28;46065;-66
2023/05/03 07:19:49;;;;;;;30.40;16.23;;;10.50;71.20;;;;;;5079917;28;46390;-66
2023/05/03 07:22:15;;;;;;;31.33;16.10;;;10.50;70.90;;;;;;5078526;28;46450;-67
2023/05/03 07:24:41;;;;;;;26.77;16.20;;;10.70;70.40;;;;;;5076391;28;45855;-66
2023/05/03 07:27:07;;;;;;;26.83;14.83;;;10.80;70.40;;;;;;5079791;28;47183;-68
2023/05/03 07:29:32;;;;;;;27.97;16.03;;;10.80;70.20;;;;;;5080899;28;46366;-67
2023/05/03 07:31:58;;;;;;;35.63;16.00;;;10.70;70.10;;;;;;5078557;28;46361;-67
2023/05/03 07:34:24;;;;;;;28.53;14.47;;;10.80;70.40;;;;;;5079630;28;45874;-66
2023/05/03 07:36:50;;;;;;;44.97;15.43;;;10.90;70.20;;;;;;5078358;28;46682;-65
2023/05/03 07:39:17;;;;;;;37.63;15.30;;;11.00;69.60;;;;;;5077328;28;46296;-67
2023/05/03 07:41:43;;;;;;;29.53;15.00;;;10.90;70.10;;;;;;5079934;28;46548;-66
2023/05/03 07:44:09;;;;;;;24.97;14.97;;;11.00;69.80;;;;;;5078106;28;46580;-66
2023/05/03 07:46:34;;;;;;;24.80;16.37;;;11.10;69.30;;;;;;5082852;28;46393;-66
2023/05/03 07:49:04;;;;;;;24.23;15.37;;;11.10;69.30;;;;;;5076452;28;46053;-67
2023/05/03 07:51:34;;;;;;;22.70;14.40;;;11.40;68.80;;;;;;5079192;27;45893;-68
2023/05/03 07:53:59;;;;;;;25.33;15.73;;;11.60;68.10;;;;;;5078245;28;46607;-68
2023/05/03 07:56:27;;;;;;;22.00;15.00;;;11.60;67.50;;;;;;5080053;28;46276;-68
2023/05/03 07:58:53;;;;;;;21.30;14.47;;;11.60;67.60;;;;;;5078781;28;46467;-68
2023/05/03 08:01:20;;;;;;;22.13;14.33;;;11.90;67.00;;;;;;5079178;28;46375;-68
2023/05/03 08:03:49;;;;;;;25.83;15.47;;;12.00;66.40;;;;;;5074000;28;46480;-67
2023/05/03 08:06:15;;;;;;;23.43;15.43;;;12.10;66.40;;;;;;5078536;28;46639;-68
2023/05/03 08:08:42;;;;;;;20.23;14.47;;;12.30;66.50;;;;;;5078967;28;46640;-68
2023/05/03 08:11:08;;;;;;;25.23;15.00;;;12.10;66.40;;;;;;5060830;28;46511;-67
2023/05/03 08:13:34;;;;;;;24.30;15.60;;;11.90;67.50;;;;;;5077459;28;46547;-67
2023/05/03 08:15:59;;;;;;;23.23;15.50;;;12.00;67.20;;;;;;5076589;28;46406;-68
2023/05/03 08:18:26;;;;;;;22.97;15.63;;;12.20;66.40;;;;;;5077335;28;46448;-68
2023/05/03 08:20:52;;;;;;;23.23;15.50;;;12.50;66.10;;;;;;5082060;28;46564;-69
2023/05/03 08:23:18;;;;;;;21.20;14.87;;;12.70;65.10;;;;;;5083645;28;46485;-68
2023/05/03 08:25:44;;;;;;;21.53;15.37;;;13.00;64.30;;;;;;5077499;28;46983;-67
2023/05/03 08:28:10;;;;;;;23.90;15.30;;;12.90;63.20;;;;;;5073234;28;46460;-65
2023/05/03 08:30:36;;;;;;;20.67;14.57;;;12.80;63.40;;;;;;5078158;27;46408;-67
2023/05/03 08:33:02;;;;;;;24.10;16.10;;;12.70;63.80;;;;;;5076579;28;45964;-66
2023/05/03 08:35:28;;;;;;;24.17;16.10;;;12.80;63.90;;;;;;5075675;28;46669;-68
2023/05/03 08:37:54;;;;;;;23.83;15.40;;;12.80;63.40;;;;;;5071036;28;46322;-67
2023/05/03 08:40:22;;;;;;;24.10;15.30;;;12.80;62.90;;;;;;5074706;28;46349;-69
2023/05/03 08:42:51;;;;;;;22.43;15.57;;;12.90;62.90;;;;;;5077483;28;46474;-69
2023/05/03 08:45:18;;;;;;;23.40;15.17;;;12.80;63.50;;;;;;5074021;28;47126;-68
2023/05/03 08:47:44;;;;;;;23.77;15.57;;;12.70;63.90;;;;;;5075328;28;46431;-70
2023/05/03 08:50:11;;;;;;;28.40;17.33;;;12.70;63.80;;;;;;5077972;28;46476;-66
2023/05/03 08:52:40;;;;;;;23.83;16.20;;;12.70;63.90;;;;;;5080042;28;46418;-67
2023/05/03 08:55:06;;;;;;;23.30;16.37;;;12.50;64.40;;;;;;5077576;28;46945;-68
2023/05/03 08:57:34;;;;;;;27.13;16.63;;;12.50;64.60;;;;;;5079122;28;46392;-69
2023/05/03 09:00:00;;;;;;;25.03;17.03;;;12.40;64.70;;;;;;5077770;28;46412;-69
2023/05/03 09:02:27;;;;;;;23.87;16.17;;;12.50;64.20;;;;;;5078094;27;46596;-67
2023/05/03 09:04:53;;;;;;;23.87;17.07;;;12.50;63.70;;;;;;5075381;28;46402;-66
2023/05/03 09:07:19;;;;;;;22.63;15.40;;;12.80;63.40;;;;;;5076836;28;46503;-66
2023/05/03 09:09:45;;;;;;;24.83;16.63;;;12.90;62.50;;;;;;5077077;28;46439;-66
2023/05/03 09:12:11;;;;;;;25.80;17.37;;;13.00;62.30;;;;;;5076597;28;46467;-67
2023/05/03 09:14:44;;;;;;;25.13;16.83;;;13.20;61.50;;;;;;5075252;28;48217;-67
2023/05/03 09:17:20;;;;;;;25.23;16.23;;;13.00;61.60;;;;;;5076722;28;46426;-67
2023/05/03 09:19:54;;;;;;;25.87;16.37;;;12.70;62.30;;;;;;5077939;27;46519;-66
2023/05/03 09:22:22;;;;;;;24.20;16.80;;;12.90;62.30;;;;;;5077346;28;46541;-66
2023/05/03 09:24:55;;;;;;;23.00;16.20;;;13.00;61.50;;;;;;5076669;28;46627;-66
2023/05/03 09:27:22;;;;;;;23.43;16.13;;;13.20;60.90;;;;;;5077892;28;46424;-67
2023/05/03 09:29:49;;;;;;;23.10;15.93;;;13.30;60.50;;;;;;5080457;28;46295;-67
2023/05/03 09:32:15;;;;;;;27.03;16.67;;;13.30;60.40;;;;;;5079922;28;46364;-65
2023/05/03 09:34:42;;;;;;;22.10;15.30;;;13.40;60.40;;;;;;5075780;28;47021;-68
2023/05/03 09:37:08;;;;;;;24.87;16.23;;;13.40;60.50;;;;;;5076325;28;46454;-67
2023/05/03 09:39:35;;;;;;;26.70;16.47;;;13.30;60.50;;;;;;5075438;28;46582;-67
2023/05/03 09:42:16;;;;;;;26.03;17.50;;;13.30;60.50;;;;;;5078859;28;46576;-66
2023/05/03 09:44:50;;;;;;;28.60;17.97;;;13.30;60.30;;;;;;5076806;28;46477;-67
2023/05/03 09:47:17;;;;;;;26.17;18.20;;;13.50;60.10;;;;;;5076175;28;46380;-67
2023/05/03 09:49:43;;;;;;;26.53;16.93;;;13.50;59.20;;;;;;5078408;28;46398;-68
2023/05/03 09:52:09;;;;;;;26.23;17.30;;;13.40;59.50;;;;;;5074899;28;46579;-68
2023/05/03 09:54:36;;;;;;;28.90;17.60;;;13.40;59.40;;;;;;5078124;28;46671;-67
2023/05/03 09:57:06;;;;;;;28.93;17.60;;;13.30;60.00;;;;;;5079522;28;46667;-67
2023/05/03 09:59:33;;;;;;;25.27;17.23;;;13.10;60.30;;;;;;5074086;28;45866;-66
2023/05/03 10:02:02;;;;;;;26.30;16.63;;;13.00;61.00;;;;;;5077952;28;46450;-68
2023/05/03 10:04:37;;;;;;;33.50;19.00;;;12.90;60.90;;;;;;5073877;28;47040;-69
2023/05/03 10:07:08;;;;;;;32.50;18.60;;;13.00;60.90;;;;;;5075549;28;46374;-68
2023/05/03 10:09:33;;;;;;;28.00;16.53;;;13.30;60.30;;;;;;5073813;28;46352;-68
2023/05/03 10:12:01;;;;;;;28.70;18.77;;;13.50;59.90;;;;;;5076889;28;46435;-67
2023/05/03 10:14:27;;;;;;;30.30;17.40;;;13.60;59.80;;;;;;5077341;27;46585;-67
2023/05/03 10:17:17;;;;;;;28.67;17.50;;;13.50;59.50;;;;;;5081394;28;46423;-68
2023/05/03 10:19:59;;;;;;;29.70;19.40;;;13.20;59.70;;;;;;5072450;28;46431;-67
2023/05/03 10:22:24;;;;;;;27.53;17.57;;;13.30;60.00;;;;;;5078715;28;46399;-67
2023/05/03 10:24:56;;;;;;;29.07;18.63;;;13.20;60.00;;;;;;5077509;28;47153;-66
2023/05/03 10:27:21;;;;;;;33.63;19.57;;;13.20;60.30;;;;;;5077340;28;46617;-69
2023/05/03 10:29:49;;;;;;;27.70;17.70;;;13.20;60.50;;;;;;5081505;28;46521;-64
2023/05/03 10:32:31;;;;;;;26.23;17.43;;;13.30;59.90;;;;;;5079063;28;46365;-65
2023/05/03 10:35:21;;;;;;;31.90;19.03;;;13.20;60.00;;;;;;5079930;28;47097;-66
2023/05/03 10:37:49;;;;;;;31.73;19.10;;;13.30;59.40;;;;;;5080564;28;46457;-65
2023/05/03 10:40:16;;;;;;;33.10;19.20;;;13.50;59.10;;;;;;5080439;28;46550;-66
2023/05/03 10:42:45;;;;;;;26.53;17.33;;;13.60;58.90;;;;;;5081683;28;46798;-67
2023/05/03 10:45:27;;;;;;;27.00;17.80;;;13.60;58.80;;;;;;5079269;28;46461;-68
2023/05/03 10:48:11;;;;;;;27.43;17.50;;;13.50;58.30;;;;;;5078581;28;46411;-67
2023/05/03 10:50:42;;;;;;;25.90;16.50;;;13.40;58.30;;;;;;5078223;28;45904;-66
2023/05/03 10:53:08;;;;;;;26.50;17.50;;;13.10;58.80;;;;;;5078253;28;46686;-68
2023/05/03 10:55:34;;;;;;;26.13;18.20;;;13.00;59.30;;;;;;5080344;28;47379;-67
2023/05/03 10:58:02;;;;;;;29.03;18.80;;;13.00;59.40;;;;;;5081177;28;46339;-68
2023/05/03 11:00:43;;;;;;;25.77;16.73;;;13.10;59.10;;;;;;5078985;28;46317;-67
2023/05/03 11:03:15;;;;;;;27.60;17.60;;;13.20;58.80;;;;;;5081586;28;45799;-67
2023/05/03 11:05:41;;;;;;;30.87;17.57;;;13.20;58.80;;;;;;5081413;28;46983;-68
2023/05/03 11:08:18;;;;;;;34.20;19.13;;;13.30;58.70;;;;;;5079058;28;46375;-68
2023/05/03 11:10:45;;;;;;;29.60;18.30;;;13.30;58.60;;;;;;5080628;28;46404;-68
2023/05/03 11:13:11;;;;;;;27.17;17.70;;;13.50;58.60;;;;;;5079467;27;46330;-66
2023/05/03 11:15:37;;;;;;;28.47;17.57;;;13.40;58.40;;;;;;5081159;28;46865;-68
2023/05/03 11:18:07;;;;;;;30.80;18.20;;;13.50;58.30;;;;;;5080033;28;46684;-66
2023/05/03 11:20:34;;;;;;;32.17;17.93;;;13.70;57.40;;;;;;5077826;28;46412;-68
2023/05/03 11:23:01;;;;;;;27.17;17.40;;;13.80;57.00;;;;;;5080686;28;46297;-67
2023/05/03 11:25:27;;;;;;;28.03;17.53;;;13.80;56.90;;;;;;5079694;27;47122;-69
2023/05/03 11:27:53;;;;;;;30.40;18.63;;;13.90;56.50;;;;;;5080567;28;46427;-67
2023/05/03 11:30:18;;;;;;;27.40;18.07;;;14.10;56.20;;;;;;5080655;28;46435;-67
2023/05/03 11:32:44;;;;;;;31.80;17.13;;;14.40;55.70;;;;;;5077276;28;46420;-65
2023/05/03 11:35:12;;;;;;;28.50;17.37;;;14.80;56.10;;;;;;5075394;28;47056;-67
2023/05/03 11:37:38;;;;;;;24.80;17.03;;;14.90;53.80;;;;;;5077970;28;46372;-67
2023/05/03 11:40:07;;;;;;;28.37;17.27;;;14.90;54.00;;;;;;5077423;28;46523;-66
2023/05/03 11:42:33;;;;;;;23.13;16.90;;;15.00;54.10;;;;;;5077144;27;46469;-68
2023/05/03 11:45:00;;;;;;;22.70;16.23;;;15.00;52.60;;;;;;5079045;28;46357;-69
2023/05/03 11:47:26;;;;;;;25.87;17.60;;;14.90;52.90;;;;;;5078180;28;46473;-69
2023/05/03 11:49:56;;;;;;;29.40;16.77;;;14.30;53.50;;;;;;5078546;28;46439;-68
2023/05/03 11:52:29;;;;;;;29.27;16.67;;;14.40;55.00;;;;;;5076766;28;46376;-68
2023/05/03 11:54:56;;;;;;;23.17;15.90;;;15.00;53.30;;;;;;5077503;28;48174;-67
2023/05/03 11:57:24;;;;;;;25.23;14.70;;;15.50;52.10;;;;;;5076428;28;46081;-67
2023/05/03 11:59:50;;;;;;;22.40;15.83;;;15.70;51.30;;;;;;5076536;28;46437;-67
2023/05/03 12:02:15;;;;;;;24.27;15.03;;;15.60;50.90;;;;;;5076212;28;46518;-68
2023/05/03 12:04:42;;;;;;;20.07;13.10;;;15.30;51.30;;;;;;5075882;28;46757;-66
2023/05/03 12:07:12;;;;;;;24.80;15.10;;;15.10;51.90;;;;;;5077196;28;46282;-67
2023/05/03 12:09:38;;;;;;;21.67;15.93;;;14.90;52.50;;;;;;5076735;28;46407;-66
2023/05/03 12:12:04;;;;;;;24.37;14.57;;;15.00;52.60;;;;;;5078488;28;46534;-67
2023/05/03 12:15:00;;;;;;;24.63;16.87;;;15.00;52.80;;;;;;5079783;28;49049;-67
2023/05/03 12:17:36;;;;;;;22.33;15.70;;;14.80;53.00;;;;;;5093963;27;46553;-67
2023/05/03 12:20:19;;;;;;;22.83;13.60;;;14.80;53.50;;;;;;5078052;28;46384;-66
2023/05/03 12:22:53;;;;;;;23.87;15.17;;;14.70;53.30;;;;;;5076083;28;46716;-68
2023/05/03 12:25:20;;;;;;;21.87;14.00;;;14.80;53.30;;;;;;5077263;28;46596;-67
2023/05/03 12:27:46;;;;;;;21.17;14.13;;;14.80;53.10;;;;;;5078816;28;46345;-68
2023/05/03 12:30:12;;;;;;;22.33;14.03;;;15.00;53.00;;;;;;5076252;28;45846;-68
2023/05/03 12:32:38;;;;;;;20.73;14.10;;;15.10;52.10;;;;;;5075818;28;46662;-67
2023/05/03 12:35:07;;;;;;;27.80;13.37;;;15.20;52.10;;;;;;5077831;28;46465;-68
2023/05/03 12:37:34;;;;;;;24.53;13.67;;;15.30;51.60;;;;;;5076422;28;46347;-67